Time;durP1;ratioP1;P1;durP2;ratioP2;P2;SDS_P1;SDS_P2;PMS_P1;PMS_P2;Temp;Humidity;BMP_temperature;BMP_pressure;BME280_temperature;BME280_humidity;BME280_pressure;Samples;Min_cycle;Max_cycle;Signal;HPM_P1;HPM_P2
2021/12/11 00:00:14;;;;;;;25.03;4.33;;;6.90;97.10;;;;;;5049365;28;20086;-78
2021/12/11 00:02:41;;;;;;;16.00;3.95;;;6.90;97.20;;;;;;5051067;28;20021;-79
2021/12/11 00:05:09;;;;;;;18.85;4.32;;;6.90;97.10;;;;;;5032782;28;20343;-77
2021/12/11 00:07:36;;;;;;;13.82;3.53;;;6.90;97.10;;;;;;5051083;28;20093;-77
2021/12/11 00:10:09;;;;;;;22.27;4.22;;;6.80;97.10;;;;;;5051066;28;20051;-76
2021/12/11 00:12:44;;;;;;;14.98;3.78;;;6.80;97.10;;;;;;5050774;28;20522;-78
2021/12/11 00:15:18;;;;;;;15.13;3.65;;;6.80;97.10;;;;;;5049233;28;20118;-79
2021/12/11 00:17:44;;;;;;;16.60;4.32;;;6.80;97.10;;;;;;5050474;28;20024;-76
2021/12/11 00:20:24;;;;;;;15.13;4.38;;;6.80;97.10;;;;;;5050374;28;20029;-76
2021/12/11 00:22:51;;;;;;;14.70;3.15;;;6.70;97.00;;;;;;5050406;28;20037;-78
2021/12/11 00:25:18;;;;;;;17.08;3.38;;;6.60;97.00;;;;;;5049743;28;20057;-78
2021/12/11 00:27:47;;;;;;;18.10;4.00;;;6.60;97.00;;;;;;5050762;28;20431;-77
2021/12/11 00:30:27;;;;;;;18.13;5.07;;;6.50;97.00;;;;;;5050721;28;20431;-78
2021/12/11 00:33:11;;;;;;;13.85;4.00;;;6.40;97.00;;;;;;5050373;28;20052;-76
2021/12/11 00:35:38;;;;;;;10.77;3.05;;;6.30;97.10;;;;;;5049552;28;20025;-78
2021/12/11 00:38:17;;;;;;;18.30;3.33;;;6.20;97.10;;;;;;5050594;28;20104;-81
2021/12/11 00:40:45;;;;;;;14.52;4.03;;;6.10;97.20;;;;;;5049104;28;20051;-79
2021/12/11 00:43:16;;;;;;;17.15;4.50;;;6.00;97.30;;;;;;5050625;28;20502;-80
2021/12/11 00:45:43;;;;;;;15.20;4.18;;;6.00;97.40;;;;;;5050416;28;20029;-80
2021/12/11 00:48:17;;;;;;;21.00;5.10;;;6.00;97.60;;;;;;5050088;28;20467;-78
2021/12/11 00:50:44;;;;;;;16.52;3.33;;;6.10;97.60;;;;;;5050639;28;20025;-80
2021/12/11 00:53:27;;;;;;;13.55;4.18;;;6.20;97.60;;;;;;5050488;28;20469;-79
2021/12/11 00:55:56;;;;;;;17.35;3.88;;;6.20;97.60;;;;;;5048894;28;20043;-79
2021/12/11 00:58:34;;;;;;;24.88;4.40;;;6.30;97.60;;;;;;5049018;28;20021;-78
2021/12/11 01:01:04;;;;;;;13.77;4.20;;;6.40;97.60;;;;;;5050759;28;20043;-81
2021/12/11 01:03:31;;;;;;;20.35;3.88;;;6.40;97.50;;;;;;5049110;28;20029;-76
2021/12/11 01:06:00;;;;;;;18.92;3.92;;;6.50;97.50;;;;;;5049447;28;20064;-76
2021/12/11 01:08:37;;;;;;;17.75;3.60;;;6.60;97.50;;;;;;5050079;28;20391;-78
2021/12/11 01:11:08;;;;;;;;;;;6.60;97.50;;;;;;5050649;28;20387;-79
2021/12/11 01:13:43;;;;;;;14.43;3.55;;;6.70;97.50;;;;;;5049061;28;19904;-79
2021/12/11 01:16:13;;;;;;;18.38;5.22;;;6.60;97.40;;;;;;5049812;28;20368;-81
2021/12/11 01:18:46;;;;;;;10.38;4.40;;;6.70;97.40;;;;;;5049638;28;20090;-79
2021/12/11 01:26:35;;;;;;;12.77;3.88;;;6.80;97.40;;;;;;5049581;28;20020;-80
2021/12/11 01:29:01;;;;;;;24.23;3.92;;;6.80;97.40;;;;;;5049854;28;20024;-78
2021/12/11 01:31:28;;;;;;;21.33;4.15;;;6.80;97.50;;;;;;5048001;28;20033;-81
2021/12/11 01:33:57;;;;;;;13.52;3.95;;;6.80;97.50;;;;;;5048058;28;20052;-79
2021/12/11 01:36:23;;;;;;;14.35;3.55;;;6.80;97.50;;;;;;5047888;28;20033;-78
2021/12/11 01:38:54;;;;;;;14.60;3.40;;;6.80;97.50;;;;;;5047740;28;20045;-80
2021/12/11 01:41:21;;;;;;;13.82;4.07;;;6.80;97.50;;;;;;5048216;28;20032;-79
2021/12/11 01:43:50;;;;;;;16.65;4.30;;;6.90;97.60;;;;;;5014683;28;20048;-79
2021/12/11 01:46:20;;;;;;;15.10;3.08;;;6.80;97.60;;;;;;5047745;28;20036;-79
2021/12/11 01:48:49;;;;;;;14.65;3.85;;;6.90;97.60;;;;;;5047590;28;20080;-79
2021/12/11 01:51:33;;;;;;;15.82;3.42;;;6.90;97.70;;;;;;5047582;28;20033;-76
2021/12/11 01:54:13;;;;;;;15.32;3.28;;;6.90;97.70;;;;;;5048852;28;20033;-80
2021/12/11 01:56:43;;;;;;;13.73;3.17;;;6.90;97.70;;;;;;5049007;28;20031;-80
2021/12/11 01:59:18;;;;;;;11.15;2.95;;;7.00;97.70;;;;;;5048633;28;20462;-79
2021/12/11 02:01:53;;;;;;;14.65;3.67;;;7.00;97.80;;;;;;5048623;28;20486;-81
2021/12/11 02:04:23;;;;;;;15.55;4.03;;;7.00;97.80;;;;;;5048641;28;20035;-78
2021/12/11 02:06:52;;;;;;;11.80;2.50;;;7.00;97.80;;;;;;5048692;28;20479;-80
2021/12/11 02:09:21;;;;;;;11.55;2.90;;;7.00;97.80;;;;;;5048520;28;20024;-81
2021/12/11 02:12:02;;;;;;;16.13;3.53;;;7.00;97.80;;;;;;5048506;28;20025;-78
2021/12/11 02:14:35;;;;;;;15.20;3.33;;;7.00;97.80;;;;;;5047175;28;20029;-78
2021/12/11 02:17:02;;;;;;;17.08;3.78;;;7.10;97.80;;;;;;5047335;28;20483;-82
2021/12/11 02:19:33;;;;;;;11.25;3.30;;;7.10;97.80;;;;;;5048302;28;20024;-80
2021/12/11 02:22:02;;;;;;;21.20;4.30;;;7.10;97.80;;;;;;5047108;28;20483;-77
2021/12/11 02:24:35;;;;;;;10.32;3.50;;;7.10;97.80;;;;;;5048025;28;20163;-80
2021/12/11 02:27:05;;;;;;;14.00;4.10;;;7.10;97.80;;;;;;5046926;28;20020;-81
2021/12/11 02:29:39;;;;;;;13.05;3.47;;;7.10;97.80;;;;;;5048212;28;20064;-78
2021/12/11 02:32:08;;;;;;;12.73;3.42;;;7.20;97.90;;;;;;5046939;28;20021;-80
2021/12/11 02:34:51;;;;;;;21.63;4.10;;;7.20;98.10;;;;;;5048100;28;20029;-78
2021/12/11 02:37:35;;;;;;;14.70;3.85;;;7.20;97.90;;;;;;5048115;28;20035;-78
2021/12/11 02:40:16;;;;;;;18.35;3.75;;;7.30;97.90;;;;;;5047963;28;20029;-79
2021/12/11 02:42:49;;;;;;;16.00;3.30;;;7.30;97.90;;;;;;5047995;28;20036;-77
2021/12/11 02:45:27;;;;;;;12.85;3.17;;;7.30;97.90;;;;;;5048009;28;20021;-78
2021/12/11 02:48:07;;;;;;;13.07;4.18;;;7.30;97.90;;;;;;5047809;28;20017;-82
2021/12/11 02:50:42;;;;;;;18.10;4.57;;;7.40;97.90;;;;;;5046516;28;20021;-78
2021/12/11 02:53:11;;;;;;;14.18;3.88;;;7.40;97.90;;;;;;5047862;28;20035;-80
2021/12/11 02:55:49;;;;;;;13.70;3.63;;;7.40;98.00;;;;;;5047931;28;20032;-80
2021/12/11 02:58:22;;;;;;;16.05;3.47;;;7.50;98.00;;;;;;5046359;28;20115;-78
2021/12/11 03:01:04;;;;;;;13.65;3.10;;;7.50;98.00;;;;;;5047636;28;20049;-77
2021/12/11 03:03:37;;;;;;;16.13;3.15;;;7.50;98.00;;;;;;5046460;28;20050;-79
2021/12/11 03:06:10;;;;;;;12.93;2.80;;;7.60;98.00;;;;;;5046344;28;20025;-78
2021/12/11 03:08:36;;;;;;;31.10;4.00;;;7.60;98.00;;;;;;5047641;28;20056;-80
2021/12/11 03:11:14;;;;;;;15.13;3.47;;;7.60;98.00;;;;;;5046309;28;20108;-81
2021/12/11 03:13:44;;;;;;;13.13;3.28;;;7.70;98.00;;;;;;5047522;28;20082;-80
2021/12/11 03:16:11;;;;;;;15.10;3.47;;;7.70;98.00;;;;;;5047547;28;20025;-78
2021/12/11 03:18:36;;;;;;;;;;;7.80;98.00;;;;;;5047817;28;20025;-77
2021/12/11 03:21:03;;;;;;;11.88;3.10;;;7.80;98.00;;;;;;5047491;28;19958;-78
2021/12/11 03:23:29;;;;;;;11.98;3.15;;;7.80;97.80;;;;;;5043749;28;20112;-80
2021/12/11 03:25:56;;;;;;;13.75;3.20;;;7.90;97.90;;;;;;5047302;28;20048;-78
2021/12/11 03:28:23;;;;;;;16.80;3.92;;;7.90;97.90;;;;;;5029344;28;20025;-80
2021/12/11 03:30:56;;;;;;;17.45;3.08;;;7.90;97.90;;;;;;5046136;28;20124;-79
2021/12/11 03:33:24;;;;;;;14.20;3.38;;;7.90;97.90;;;;;;5051644;28;20035;-78
2021/12/11 03:35:50;;;;;;;21.48;3.15;;;8.00;97.90;;;;;;5051533;28;20194;-76
2021/12/11 03:38:16;;;;;;;13.65;2.80;;;8.00;97.90;;;;;;5050004;28;20060;-81
2021/12/11 03:40:43;;;;;;;;;;;8.00;97.90;;;;;;5051913;28;20044;-78
2021/12/11 03:43:17;;;;;;;17.55;3.42;;;8.00;97.90;;;;;;5051341;28;19966;-77
2021/12/11 03:45:47;;;;;;;16.40;2.70;;;8.10;97.80;;;;;;5051439;28;20017;-78
2021/12/11 03:48:19;;;;;;;21.05;3.08;;;8.10;97.80;;;;;;5051215;28;20100;-79
2021/12/11 03:50:45;;;;;;;19.05;2.45;;;8.10;97.80;;;;;;5049856;28;20017;-81
2021/12/11 03:53:12;;;;;;;15.20;2.55;;;8.10;97.80;;;;;;5051293;28;20021;-78
2021/12/11 03:55:56;;;;;;;15.70;2.42;;;8.10;97.80;;;;;;5049814;28;20534;-78
2021/12/11 03:58:23;;;;;;;14.25;2.42;;;8.10;97.90;;;;;;5051018;28;20103;-81
2021/12/11 04:00:51;;;;;;;;;;;8.10;97.90;;;;;;5050165;28;20025;-81
2021/12/11 04:03:22;;;;;;;9.98;2.53;;;8.10;97.90;;;;;;5050781;28;19916;-78
2021/12/11 04:05:50;;;;;;;17.15;2.83;;;8.10;97.80;;;;;;5049671;28;20025;-81
2021/12/11 04:08:21;;;;;;;16.40;2.88;;;8.10;97.80;;;;;;5049450;28;20029;-79
2021/12/11 04:10:48;;;;;;;12.63;2.45;;;8.20;97.90;;;;;;5050894;28;20033;-80
2021/12/11 04:13:15;;;;;;;10.52;2.10;;;8.20;97.90;;;;;;5050715;28;20109;-79
2021/12/11 04:15:44;;;;;;;14.15;3.13;;;8.20;97.80;;;;;;5033147;28;20102;-79
2021/12/11 04:18:10;;;;;;;10.02;2.42;;;8.30;97.80;;;;;;5049640;28;20043;-77
2021/12/11 04:20:39;;;;;;;14.10;2.50;;;8.30;97.80;;;;;;5049376;28;20173;-78
2021/12/11 04:23:07;;;;;;;9.48;1.83;;;8.30;97.80;;;;;;5033300;28;20179;-78
2021/12/11 04:25:34;;;;;;;12.65;2.70;;;8.30;97.70;;;;;;5049378;28;20054;-79
2021/12/11 04:28:01;;;;;;;16.83;2.58;;;8.30;97.70;;;;;;5050495;28;20075;-80
2021/12/11 04:30:29;;;;;;;10.48;1.90;;;8.40;97.70;;;;;;5050407;28;20030;-79
2021/12/11 04:32:56;;;;;;;8.90;1.48;;;8.40;97.70;;;;;;5050554;28;20052;-79
2021/12/11 04:35:27;;;;;;;7.47;1.85;;;8.40;97.60;;;;;;5032500;28;20090;-80
2021/12/11 04:37:53;;;;;;;12.43;2.35;;;8.40;97.60;;;;;;5048964;28;20029;-80
2021/12/11 04:40:25;;;;;;;10.23;1.35;;;8.40;97.60;;;;;;5050126;28;20044;-80
2021/12/11 04:43:05;;;;;;;5.72;1.80;;;8.40;97.60;;;;;;5049131;28;20410;-80
2021/12/11 04:45:47;;;;;;;7.68;1.67;;;8.40;97.60;;;;;;5050220;28;20463;-78
2021/12/11 04:48:25;;;;;;;9.88;1.55;;;8.40;97.50;;;;;;5050023;28;20021;-78
2021/12/11 05:06:15;;;;;;;9.50;1.55;;;8.60;97.50;;;;;;5048613;28;20484;-77
2021/12/11 05:11:43;;;;;;;13.30;2.00;;;8.60;97.40;;;;;;5050101;28;20044;-79
2021/12/11 05:14:15;;;;;;;7.28;1.35;;;8.70;97.40;;;;;;5049672;28;20025;-81
2021/12/11 05:16:41;;;;;;;8.50;2.03;;;8.70;97.40;;;;;;5049538;28;20488;-80
2021/12/11 05:19:08;;;;;;;10.57;1.95;;;8.70;97.40;;;;;;5049563;28;20115;-80
2021/12/11 05:21:35;;;;;;;12.55;2.00;;;8.70;97.40;;;;;;5049498;28;20528;-79
2021/12/11 05:24:04;;;;;;;9.65;1.52;;;8.70;97.40;;;;;;5031541;28;20055;-77
2021/12/11 05:26:31;;;;;;;10.93;2.22;;;8.80;97.30;;;;;;5049384;28;20048;-79
2021/12/11 05:28:57;;;;;;;6.93;1.67;;;8.70;97.30;;;;;;5047955;28;20033;-78
2021/12/11 05:31:23;;;;;;;5.47;2.05;;;8.70;97.30;;;;;;5049591;28;20039;-80
2021/12/11 05:33:49;;;;;;;12.73;2.17;;;8.70;97.30;;;;;;5049420;28;20033;-81
2021/12/11 05:36:17;;;;;;;7.57;2.15;;;8.70;97.40;;;;;;5048069;28;20109;-79
2021/12/11 05:38:43;;;;;;;7.07;2.40;;;8.60;97.40;;;;;;5049096;28;20037;-81
2021/12/11 05:41:12;;;;;;;4.03;2.10;;;8.60;97.40;;;;;;5031375;28;20490;-80
2021/12/11 05:43:38;;;;;;;13.65;3.20;;;8.60;97.60;;;;;;5047745;28;20033;-79
2021/12/11 05:46:05;;;;;;;8.02;3.40;;;8.60;97.70;;;;;;5047791;28;20025;-79
2021/12/11 05:48:31;;;;;;;8.70;3.95;;;8.60;97.80;;;;;;5049209;28;20026;-78
2021/12/11 05:51:01;;;;;;;9.77;3.05;;;8.60;97.90;;;;;;5049028;28;20025;-80
2021/12/11 05:53:31;;;;;;;11.02;3.80;;;8.60;98.00;;;;;;5049354;28;20031;-79
2021/12/11 05:55:59;;;;;;;9.13;3.05;;;8.50;98.10;;;;;;5047441;28;20029;-80
2021/12/11 05:58:45;;;;;;;8.95;3.58;;;8.50;98.20;;;;;;5047448;28;20029;-79
2021/12/11 06:01:12;;;;;;;9.50;3.97;;;8.50;98.30;;;;;;5048633;28;20405;-78
2021/12/11 06:03:37;;;;;;;11.52;4.15;;;8.60;98.40;;;;;;5048741;28;20021;-81
2021/12/11 06:06:05;;;;;;;11.45;3.17;;;8.60;98.70;;;;;;5047435;28;20036;-78
2021/12/11 06:08:31;;;;;;;8.80;3.35;;;8.70;98.60;;;;;;5048471;28;20036;-77
2021/12/11 06:10:57;;;;;;;5.95;3.03;;;8.70;98.60;;;;;;5048656;28;20024;-79
2021/12/11 06:13:25;;;;;;;;;;;8.70;98.70;;;;;;5049052;28;20387;-78
2021/12/11 06:15:54;;;;;;;8.82;3.22;;;8.80;98.80;;;;;;5048587;28;19917;-78
2021/12/11 06:18:20;;;;;;;10.02;3.25;;;8.80;98.70;;;;;;5048361;28;20025;-78
2021/12/11 06:20:47;;;;;;;5.60;3.10;;;8.90;98.80;;;;;;5048397;28;20056;-80
2021/12/11 06:23:17;;;;;;;7.18;3.80;;;8.90;98.80;;;;;;5046856;28;20056;-80
2021/12/11 06:25:43;;;;;;;12.45;3.65;;;8.90;98.90;;;;;;5047321;28;20450;-80
2021/12/11 06:28:10;;;;;;;5.53;3.15;;;9.00;99.10;;;;;;5046977;28;20074;-77
2021/12/11 06:30:38;;;;;;;4.82;3.85;;;9.00;99.20;;;;;;5048182;28;20035;-77
2021/12/11 06:33:05;;;;;;;8.00;4.38;;;9.00;99.20;;;;;;5048221;28;20438;-77
2021/12/11 06:35:40;;;;;;;6.57;4.20;;;9.00;99.20;;;;;;5046734;28;20043;-77
2021/12/11 06:38:08;;;;;;;7.47;4.95;;;9.00;99.30;;;;;;5046615;28;20028;-79
2021/12/11 06:40:34;;;;;;;7.32;5.78;;;9.00;99.40;;;;;;5046811;28;20055;-79
2021/12/11 06:43:01;;;;;;;10.88;6.95;;;9.00;99.50;;;;;;5046752;28;20048;-79
2021/12/11 06:45:28;;;;;;;8.27;7.55;;;8.90;99.50;;;;;;5030152;28;20412;-79
2021/12/11 06:47:55;;;;;;;8.85;7.93;;;8.90;99.70;;;;;;5047810;28;20016;-79
2021/12/11 06:50:21;;;;;;;9.95;9.05;;;8.90;99.70;;;;;;5047971;28;20519;-78
2021/12/11 06:52:49;;;;;;;10.48;9.00;;;8.90;99.80;;;;;;5047843;28;20051;-80
2021/12/11 06:55:18;;;;;;;9.02;8.32;;;8.90;99.90;;;;;;5047815;28;20032;-80
2021/12/11 06:57:45;;;;;;;12.48;9.63;;;8.80;99.90;;;;;;5047845;28;20426;-80
2021/12/11 07:00:13;;;;;;;11.25;10.45;;;8.90;99.90;;;;;;5047779;28;20479;-72
2021/12/11 07:02:38;;;;;;;10.05;9.20;;;8.80;99.90;;;;;;5047493;28;20032;-78
2021/12/11 07:05:04;;;;;;;9.73;9.13;;;8.80;99.90;;;;;;5047766;28;20033;-78
2021/12/11 07:07:34;;;;;;;9.88;9.07;;;8.80;99.90;;;;;;5045751;28;20049;-77
2021/12/11 07:10:01;;;;;;;11.40;10.32;;;8.90;99.90;;;;;;5030412;28;20373;-79
2021/12/11 07:12:27;;;;;;;11.82;10.82;;;8.90;99.90;;;;;;5047928;28;20029;-79
2021/12/11 07:14:53;;;;;;;10.68;9.68;;;8.90;99.90;;;;;;5029936;28;20025;-78
2021/12/11 07:17:20;;;;;;;;;;;8.90;99.90;;;;;;5048180;28;20044;-78
2021/12/11 07:19:46;;;;;;;11.18;7.68;;;9.00;99.90;;;;;;5047524;28;19916;-81
2021/12/11 07:22:13;;;;;;;8.63;7.90;;;9.00;99.90;;;;;;5046230;28;20051;-79
2021/12/11 07:24:44;;;;;;;8.98;8.38;;;9.00;99.90;;;;;;5046062;28;20057;-79
2021/12/11 07:27:11;;;;;;;8.35;7.78;;;9.10;99.90;;;;;;5047484;28;20052;-79
2021/12/11 07:29:38;;;;;;;10.68;9.93;;;9.10;99.90;;;;;;5029513;28;20108;-79
2021/12/11 07:32:04;;;;;;;8.27;7.47;;;9.10;99.90;;;;;;5047587;28;20383;-80
2021/12/11 07:34:30;;;;;;;8.80;8.23;;;9.10;99.90;;;;;;5047226;28;20528;-79
2021/12/11 07:36:57;;;;;;;8.07;7.47;;;9.20;99.90;;;;;;5029392;28;20042;-80
2021/12/11 07:39:24;;;;;;;10.52;7.53;;;9.20;99.90;;;;;;5047421;28;20368;-80
2021/12/11 07:41:52;;;;;;;9.85;7.82;;;9.20;99.90;;;;;;5047341;28;20092;-80
2021/12/11 07:44:18;;;;;;;8.55;7.85;;;9.30;99.90;;;;;;5029810;28;20087;-79
2021/12/11 07:46:45;;;;;;;8.15;7.20;;;9.30;99.90;;;;;;5029392;28;20031;-80
2021/12/11 07:49:10;;;;;;;8.68;7.97;;;9.30;99.90;;;;;;5047240;28;20099;-81
2021/12/11 07:51:38;;;;;;;8.77;6.85;;;9.30;99.90;;;;;;5029146;28;20029;-80
2021/12/11 07:54:06;;;;;;;7.80;7.05;;;9.40;99.90;;;;;;5029592;28;20029;-80
2021/12/11 07:56:32;;;;;;;8.20;7.28;;;9.40;99.90;;;;;;5046007;28;20025;-80
2021/12/11 07:59:01;;;;;;;7.38;6.65;;;9.40;99.90;;;;;;5046893;28;20040;-78
2021/12/11 08:01:28;;;;;;;8.10;7.50;;;9.50;99.90;;;;;;5047230;28;20017;-78
2021/12/11 08:03:57;;;;;;;10.98;7.20;;;9.50;99.90;;;;;;5045882;28;20486;-80
2021/12/11 08:06:23;;;;;;;8.27;7.35;;;9.50;99.90;;;;;;5045804;28;20034;-78
2021/12/11 08:08:49;;;;;;;7.85;7.03;;;9.60;99.90;;;;;;5045668;28;20025;-80
2021/12/11 08:11:18;;;;;;;10.85;8.07;;;9.60;99.90;;;;;;5047009;28;20099;-81
2021/12/11 08:13:46;;;;;;;9.05;8.35;;;9.60;99.90;;;;;;5045778;28;20435;-79
2021/12/11 08:16:14;;;;;;;9.27;7.22;;;9.60;99.90;;;;;;5046992;28;20025;-80
2021/12/11 08:18:40;;;;;;;8.00;7.20;;;9.70;99.90;;;;;;5049796;28;20067;-80
2021/12/11 08:21:07;;;;;;;8.75;7.55;;;9.70;99.90;;;;;;5050555;28;20053;-80
2021/12/11 08:23:33;;;;;;;;;;;9.70;99.90;;;;;;5051063;28;20094;-79
2021/12/11 08:26:00;;;;;;;8.50;7.65;;;9.70;99.90;;;;;;5050622;28;20003;-80
2021/12/11 08:28:29;;;;;;;9.55;8.55;;;9.70;99.90;;;;;;5050227;28;20086;-79
2021/12/11 08:30:57;;;;;;;8.32;6.95;;;9.70;99.90;;;;;;5050618;28;20021;-79
2021/12/11 08:33:23;;;;;;;7.90;7.15;;;9.70;99.90;;;;;;5050290;28;20025;-78
2021/12/11 08:35:50;;;;;;;8.50;7.47;;;9.70;99.90;;;;;;5050438;28;20096;-77
2021/12/11 08:38:17;;;;;;;7.47;6.57;;;9.70;99.90;;;;;;5049249;28;20029;-81
2021/12/11 08:40:48;;;;;;;7.95;7.25;;;9.70;99.90;;;;;;5050105;28;20033;-79
2021/12/11 08:43:15;;;;;;;8.90;7.28;;;9.80;99.90;;;;;;5048743;28;20043;-79
2021/12/11 08:45:48;;;;;;;10.30;6.57;;;9.80;99.90;;;;;;5048994;28;20025;-77
2021/12/11 08:48:19;;;;;;;8.57;7.93;;;9.80;99.90;;;;;;5048749;28;20033;-80
2021/12/11 08:50:49;;;;;;;9.23;7.47;;;9.90;99.90;;;;;;5049996;28;20021;-78
2021/12/11 08:53:15;;;;;;;8.27;7.47;;;9.90;99.90;;;;;;5050100;28;20053;-78
2021/12/11 08:55:42;;;;;;;;;;;9.90;99.90;;;;;;5048988;28;20044;-76
2021/12/11 08:58:12;;;;;;;8.15;7.38;;;10.00;99.90;;;;;;5050281;28;19911;-79
2021/12/11 09:00:45;;;;;;;8.70;8.00;;;10.00;99.90;;;;;;5049957;28;20130;-79
2021/12/11 09:03:13;;;;;;;8.20;7.50;;;10.00;99.90;;;;;;5050207;28;20391;-78
2021/12/11 09:05:53;;;;;;;9.77;8.55;;;10.10;99.90;;;;;;5050178;28;20262;-80
2021/12/11 09:08:26;;;;;;;12.18;9.20;;;10.10;99.90;;;;;;5048445;28;20056;-78
2021/12/11 09:11:05;;;;;;;9.23;8.43;;;10.10;99.90;;;;;;5050074;28;20036;-79
2021/12/11 09:13:38;;;;;;;8.73;8.23;;;10.20;99.90;;;;;;5049580;28;20033;-79
2021/12/11 09:16:19;;;;;;;9.18;8.65;;;10.20;99.90;;;;;;5048039;28;20479;-78
2021/12/11 09:18:57;;;;;;;11.50;10.73;;;10.20;99.90;;;;;;5047806;28;20025;-78
2021/12/11 09:21:35;;;;;;;9.93;9.15;;;10.20;99.90;;;;;;5048337;28;20131;-79
2021/12/11 09:24:12;;;;;;;9.50;8.65;;;10.30;99.90;;;;;;5049531;28;20045;-78
2021/12/11 09:26:50;;;;;;;9.80;8.93;;;10.30;99.90;;;;;;5049987;28;20029;-81
2021/12/11 09:29:34;;;;;;;10.30;9.70;;;10.30;99.90;;;;;;5048820;28;20064;-79
2021/12/11 09:32:22;;;;;;;11.05;10.35;;;10.30;99.90;;;;;;5049525;28;20021;-79
2021/12/11 09:34:55;;;;;;;11.93;11.23;;;10.40;99.90;;;;;;5049249;28;20369;-77
2021/12/11 09:37:22;;;;;;;10.73;10.02;;;10.40;99.90;;;;;;5048986;28;20021;-78
2021/12/11 09:39:56;;;;;;;9.85;9.25;;;10.40;99.90;;;;;;5031395;28;20033;-78
2021/12/11 09:42:22;;;;;;;9.63;9.02;;;10.50;99.90;;;;;;5048032;28;20025;-80
2021/12/11 09:44:55;;;;;;;7.95;7.45;;;10.50;99.90;;;;;;5049450;28;20123;-81
2021/12/11 09:47:30;;;;;;;8.45;7.90;;;10.60;99.90;;;;;;5047497;28;20385;-78
2021/12/11 09:50:08;;;;;;;7.88;7.35;;;10.70;99.90;;;;;;5048729;28;20591;-79
2021/12/11 09:52:35;;;;;;;8.65;8.10;;;10.70;99.90;;;;;;5047412;28;20098;-77
2021/12/11 09:55:15;;;;;;;8.25;7.65;;;10.80;99.90;;;;;;5047920;28;20512;-78
2021/12/11 09:57:47;;;;;;;8.13;7.53;;;10.80;99.90;;;;;;5047914;28;20040;-78
2021/12/11 10:00:34;;;;;;;8.32;6.68;;;10.90;99.90;;;;;;5049198;28;20043;-75
2021/12/11 10:03:01;;;;;;;6.68;6.18;;;11.00;99.90;;;;;;5048826;28;20025;-79
2021/12/11 10:05:36;;;;;;;7.30;6.70;;;11.00;99.90;;;;;;5047861;28;20025;-77
2021/12/11 10:08:27;;;;;;;7.40;6.80;;;11.10;99.90;;;;;;5049650;28;20380;-77
2021/12/11 10:11:27;;;;;;;6.07;5.68;;;11.10;99.90;;;;;;5050850;28;20044;-78
2021/12/11 10:13:58;;;;;;;6.38;5.78;;;11.20;99.90;;;;;;5045912;28;20040;-77
2021/12/11 10:16:29;;;;;;;7.22;6.68;;;11.30;99.90;;;;;;5049347;28;20021;-77
2021/12/11 10:18:55;;;;;;;7.18;6.40;;;11.30;99.90;;;;;;5050275;28;20025;-77
2021/12/11 10:21:32;;;;;;;5.97;5.50;;;11.40;99.90;;;;;;5050746;28;20025;-77
2021/12/11 10:24:02;;;;;;;7.22;6.50;;;11.40;99.90;;;;;;5049202;28;20055;-78
2021/12/11 10:26:28;;;;;;;5.70;5.30;;;11.50;99.90;;;;;;5049812;28;20089;-79
2021/12/11 10:28:56;;;;;;;;;;;11.60;99.90;;;;;;5050249;28;20040;-79
2021/12/11 10:31:25;;;;;;;;;;;11.70;99.90;;;;;;5049994;28;19904;-77
2021/12/11 10:33:52;;;;;;;5.28;4.88;;;11.80;99.90;;;;;;5038808;28;19908;-79
2021/12/11 10:36:22;;;;;;;4.82;4.50;;;11.80;99.90;;;;;;5034602;28;20145;-77
2021/12/11 10:38:48;;;;;;;5.40;4.90;;;11.90;99.90;;;;;;5047646;28;20025;-77
2021/12/11 10:41:14;;;;;;;4.30;3.90;;;12.00;99.90;;;;;;5034026;28;20726;-79
2021/12/11 10:43:53;;;;;;;5.82;4.47;;;12.10;99.90;;;;;;5035348;28;20125;-77
2021/12/11 10:46:23;;;;;;;4.90;4.50;;;12.30;99.90;;;;;;5039404;28;20036;-77
2021/12/11 10:48:49;;;;;;;7.55;6.78;;;12.30;99.90;;;;;;5041935;28;20434;-78
2021/12/11 10:51:28;;;;;;;4.80;4.40;;;12.30;99.90;;;;;;5030787;28;20065;-78
2021/12/11 10:53:54;;;;;;;4.80;4.45;;;12.30;99.90;;;;;;5046148;28;20071;-77
2021/12/11 10:56:22;;;;;;;5.50;5.00;;;12.30;99.90;;;;;;5044269;28;20028;-77
2021/12/11 10:58:53;;;;;;;5.65;4.95;;;12.30;99.90;;;;;;5032516;28;20064;-78
2021/12/11 11:01:24;;;;;;;4.72;4.32;;;12.30;99.90;;;;;;5041169;28;20021;-77
2021/12/11 11:04:28;;;;;;;5.10;4.65;;;12.40;99.90;;;;;;5041186;28;20033;-76
2021/12/11 11:06:54;;;;;;;6.70;4.65;;;12.40;99.90;;;;;;5042159;28;20107;-76
2021/12/11 11:09:22;;;;;;;;;;;12.40;99.90;;;;;;5041584;28;20368;-78
2021/12/11 11:11:51;;;;;;;5.63;5.22;;;12.40;99.90;;;;;;5041885;28;19905;-78
2021/12/11 11:14:17;;;;;;;6.10;5.60;;;12.40;99.90;;;;;;5039349;28;20021;-76
2021/12/11 11:16:44;;;;;;;;;;;12.40;99.90;;;;;;5040682;28;20506;-79
2021/12/11 11:19:10;;;;;;;6.15;5.70;;;12.40;99.90;;;;;;5038811;28;19952;-77
2021/12/11 11:21:40;;;;;;;6.53;5.93;;;12.50;99.90;;;;;;5044700;28;20677;-78
2021/12/11 11:24:11;;;;;;;6.32;5.93;;;12.50;99.90;;;;;;5038623;28;20109;-79
2021/12/11 11:26:43;;;;;;;8.15;5.90;;;12.50;99.90;;;;;;5035416;28;20029;-74
2021/12/11 11:29:15;;;;;;;7.10;6.50;;;12.50;99.90;;;;;;5040701;28;20017;-77
2021/12/11 11:31:44;;;;;;;6.53;6.03;;;12.50;99.90;;;;;;5038741;28;20021;-78
2021/12/11 11:34:14;;;;;;;6.40;6.00;;;12.60;99.90;;;;;;5025308;28;20028;-75
2021/12/11 11:36:40;;;;;;;6.63;6.07;;;12.70;99.90;;;;;;5034862;28;20056;-79
2021/12/11 11:39:10;;;;;;;6.72;6.32;;;12.70;99.90;;;;;;5041589;28;20063;-76
2021/12/11 11:41:42;;;;;;;6.47;6.05;;;12.70;99.90;;;;;;5042812;28;20051;-76
2021/12/11 11:44:38;;;;;;;6.38;5.75;;;12.70;99.90;;;;;;5039299;28;20025;-76
2021/12/11 11:47:06;;;;;;;6.88;6.45;;;12.70;99.90;;;;;;5034391;28;20029;-75
2021/12/11 11:49:33;;;;;;;7.65;7.10;;;12.70;99.90;;;;;;5034562;28;20082;-77
2021/12/11 11:52:10;;;;;;;7.68;7.18;;;12.60;99.90;;;;;;5033846;28;20476;-75
2021/12/11 11:54:39;;;;;;;6.60;6.00;;;12.60;99.90;;;;;;5042090;28;20105;-77
2021/12/11 11:57:11;;;;;;;6.45;6.05;;;12.60;99.90;;;;;;5039490;28;20042;-76
2021/12/11 11:59:39;;;;;;;7.53;7.03;;;12.60;99.90;;;;;;5051780;28;20029;-77
2021/12/11 12:02:17;;;;;;;7.47;6.97;;;12.60;99.90;;;;;;5036765;28;20021;-78
2021/12/11 12:04:56;;;;;;;10.02;8.48;;;12.60;99.90;;;;;;5047690;28;20017;-75
2021/12/11 12:07:28;;;;;;;8.85;8.25;;;12.60;99.90;;;;;;5043483;28;20491;-75
2021/12/11 12:10:00;;;;;;;7.47;6.95;;;12.70;99.90;;;;;;5041850;28;20115;-77
2021/12/11 12:12:27;;;;;;;9.95;9.25;;;12.60;99.90;;;;;;5038967;28;20052;-79
2021/12/11 12:14:55;;;;;;;10.50;9.80;;;12.60;99.90;;;;;;5048582;28;20221;-76
2021/12/11 12:17:24;;;;;;;13.23;12.43;;;12.70;99.90;;;;;;5043430;28;20029;-77
2021/12/11 12:19:52;;;;;;;12.93;12.10;;;12.70;99.90;;;;;;5048881;28;20023;-75
2021/12/11 12:22:19;;;;;;;14.40;13.50;;;12.70;99.90;;;;;;5046691;28;20476;-76
2021/12/11 12:24:47;;;;;;;16.20;15.13;;;12.70;99.90;;;;;;5037810;28;20095;-77
2021/12/11 12:27:17;;;;;;;16.67;15.55;;;12.60;99.90;;;;;;5045172;28;20112;-79
2021/12/11 12:29:44;;;;;;;16.55;15.68;;;12.60;99.90;;;;;;5043219;28;20021;-76
2021/12/11 12:32:22;;;;;;;17.80;16.70;;;12.60;99.90;;;;;;5050465;28;20039;-75
2021/12/11 12:34:51;;;;;;;16.50;15.60;;;12.60;99.90;;;;;;5035142;28;20104;-76
2021/12/11 12:37:18;;;;;;;18.60;17.60;;;12.60;99.90;;;;;;5034522;28;20025;-78
2021/12/11 12:39:47;;;;;;;18.30;17.23;;;12.60;99.90;;;;;;5031320;28;20500;-78
2021/12/11 12:42:26;;;;;;;19.20;18.08;;;12.60;99.90;;;;;;5034254;28;20024;-73
2021/12/11 12:45:00;;;;;;;18.88;17.77;;;12.60;99.90;;;;;;5041695;28;20020;-76
2021/12/11 12:47:34;;;;;;;18.15;17.27;;;12.60;99.90;;;;;;5043393;28;20099;-77
2021/12/11 12:50:03;;;;;;;19.70;18.35;;;12.60;99.90;;;;;;5047400;28;20155;-77
2021/12/11 12:52:36;;;;;;;19.88;18.63;;;12.60;99.90;;;;;;5036718;28;20091;-79
2021/12/11 12:55:10;;;;;;;24.02;22.33;;;12.60;99.90;;;;;;5037031;28;20034;-78
2021/12/11 12:57:39;;;;;;;22.23;21.00;;;12.70;99.90;;;;;;5030072;28;20720;-78
2021/12/11 13:00:20;;;;;;;28.45;26.02;;;12.70;99.90;;;;;;5040952;28;20423;-77
2021/12/11 13:02:47;;;;;;;23.90;22.77;;;12.70;99.90;;;;;;5040051;28;20025;-76
2021/12/11 13:05:16;;;;;;;22.95;21.85;;;12.80;99.90;;;;;;5048195;28;20112;-79
2021/12/11 13:07:43;;;;;;;24.20;22.80;;;12.80;99.90;;;;;;5035394;28;20035;-74
2021/12/11 13:10:15;;;;;;;25.20;23.65;;;12.90;99.90;;;;;;5042385;28;20433;-78
2021/12/11 13:12:44;;;;;;;22.38;21.17;;;12.90;99.90;;;;;;5038837;28;20385;-74
2021/12/11 13:15:24;;;;;;;23.05;21.85;;;12.90;99.90;;;;;;5038916;28;20074;-77
2021/12/11 13:17:55;;;;;;;20.60;19.40;;;12.90;99.90;;;;;;5044318;28;20029;-76
2021/12/11 13:20:34;;;;;;;20.63;19.63;;;13.00;99.90;;;;;;5041837;28;20051;-78
2021/12/11 13:23:01;;;;;;;20.55;19.35;;;13.00;99.90;;;;;;5029568;28;20073;-77
2021/12/11 13:25:40;;;;;;;19.58;18.40;;;13.00;99.90;;;;;;5031925;28;20041;-79
2021/12/11 13:28:06;;;;;;;18.50;17.40;;;13.00;99.90;;;;;;5033932;28;20092;-76
2021/12/11 13:30:36;;;;;;;19.85;18.73;;;13.10;99.90;;;;;;5029790;28;20428;-76